Madisonville, KY

6:57 PM CST on December 07, 2016 (GMT -0600)
Madisonville | | Change Station

Elev 436 ft 37.36 °N, 87.40 °W | Updated 22 minutes ago

Overcast
Overcast
39 °F
Feels Like 34 °F
N
8
Wind Variable Wind from North

Today
High -- | Low -- °F
--% Chance of Precip.
Yesterday
High -- | Low -- °F
Precip. -- in
Pressure 30.23 in
Visibility 10.0 miles
Clouds Overcast 8500 ft
Windchill 34 °F
Dew Point 30 °F
Humidity 71%
Rainfall 0.00 in
Snow Depth Not available.
6:50 AM 4:31 PM
First Quarter, 57% visible
METAR K2I0 080035Z AUTO 35007KT 10SM OVC085 04/M01 A3023 RMK AO2 T00401009
Pressure 30.23 in
Visibility 10.0 miles
Clouds Overcast 8500 ft
Windchill 34 °F
Dew Point 30 °F
Humidity 71%
Rainfall 0.00 in
Snow Depth Not available.
6:50 AM 4:31 PM
First Quarter, 57% visible
METAR K2I0 080035Z AUTO 35007KT 10SM OVC085 04/M01 A3023 RMK AO2 T00401009

10-Day Weather Forecast

Almanac

Astronomy

Dec. 07, 2016 Rise Set
Actual Time
Civil Twilight
Nautical Twilight
Astronomical Twilight
Moon
Length of Visible Light
Length of Day
Tomorrow will be .
, % of the Moon is Illuminated

Today's Extremes

State Highs State Lows

Community

WunderPhotos

Upload Photos

1,956,237 photos uploaded!

WunderBlog® & News

Nearby

Air Quality

  Air Quality AQ Index Pollutant
Not available.

Snow Depth

Station Depth Elevation

Earthquake Activity

City Distance Mag. Time & Date
Minimum magnitude displayed is 2.5.

Coastal Water Temperatures

Place Temperature

Stations

Nearby Weather Stations

Station Location Temp. Windchill Dew Point Humidity Wind Precip. Elev Updated Type
                   

Watches & Warnings

There are currently no watches in effect.